sensor_id;sensor_type;location;lat;lon;timestamp;temperature;humidity
20714;DHT22;10518;50.742;4.226;2023-06-10T00:02:00;23.10;99.90
20714;DHT22;10518;50.742;4.226;2023-06-10T00:04:27;22.90;99.90
20714;DHT22;10518;50.742;4.226;2023-06-10T00:06:52;22.90;99.90
20714;DHT22;10518;50.742;4.226;2023-06-10T00:09:19;22.90;99.90
20714;DHT22;10518;50.742;4.226;2023-06-10T00:11:46;22.70;99.90
20714;DHT22;10518;50.742;4.226;2023-06-10T00:14:12;22.90;99.90
20714;DHT22;10518;50.742;4.226;2023-06-10T00:16:38;22.80;99.90
20714;DHT22;10518;50.742;4.226;2023-06-10T00:19:04;22.70;99.90
20714;DHT22;10518;50.742;4.226;2023-06-10T00:21:34;22.60;99.90
20714;DHT22;10518;50.742;4.226;2023-06-10T00:24:06;22.60;99.90
20714;DHT22;10518;50.742;4.226;2023-06-10T00:26:32;22.50;99.90
20714;DHT22;10518;50.742;4.226;2023-06-10T00:28:59;22.50;99.90
20714;DHT22;10518;50.742;4.226;2023-06-10T00:31:25;22.60;99.90
20714;DHT22;10518;50.742;4.226;2023-06-10T00:33:52;22.50;99.90
20714;DHT22;10518;50.742;4.226;2023-06-10T00:36:17;22.50;99.90
20714;DHT22;10518;50.742;4.226;2023-06-10T00:38:43;22.50;99.90
20714;DHT22;10518;50.742;4.226;2023-06-10T00:41:09;22.50;99.90
20714;DHT22;10518;50.742;4.226;2023-06-10T00:43:34;22.50;99.90
20714;DHT22;10518;50.742;4.226;2023-06-10T00:46:00;22.40;99.90
20714;DHT22;10518;50.742;4.226;2023-06-10T00:48:27;22.40;99.90
20714;DHT22;10518;50.742;4.226;2023-06-10T00:50:53;22.50;99.90
20714;DHT22;10518;50.742;4.226;2023-06-10T00:53:19;22.50;99.90
20714;DHT22;10518;50.742;4.226;2023-06-10T00:55:46;22.40;99.90
20714;DHT22;10518;50.742;4.226;2023-06-10T00:58:12;22.30;99.90
20714;DHT22;10518;50.742;4.226;2023-06-10T01:00:37;22.40;99.90
20714;DHT22;10518;50.742;4.226;2023-06-10T01:03:03;22.30;99.90
20714;DHT22;10518;50.742;4.226;2023-06-10T01:05:36;22.30;99.90
20714;DHT22;10518;50.742;4.226;2023-06-10T01:11:04;22.20;99.90
20714;DHT22;10518;50.742;4.226;2023-06-10T01:13:33;22.30;99.90
20714;DHT22;10518;50.742;4.226;2023-06-10T01:16:01;22.40;99.90
20714;DHT22;10518;50.742;4.226;2023-06-10T01:18:33;22.20;99.90
20714;DHT22;10518;50.742;4.226;2023-06-10T01:20:58;22.20;99.90
20714;DHT22;10518;50.742;4.226;2023-06-10T01:23:24;22.20;99.90
20714;DHT22;10518;50.742;4.226;2023-06-10T01:26:00;22.20;99.90
20714;DHT22;10518;50.742;4.226;2023-06-10T01:28:36;22.10;99.90
20714;DHT22;10518;50.742;4.226;2023-06-10T01:34:00;22.20;99.90
20714;DHT22;10518;50.742;4.226;2023-06-10T01:36:26;22.20;99.90
20714;DHT22;10518;50.742;4.226;2023-06-10T01:38:53;22.10;99.90
20714;DHT22;10518;50.742;4.226;2023-06-10T01:41:19;22.10;99.90
20714;DHT22;10518;50.742;4.226;2023-06-10T01:43:47;22.00;99.90
20714;DHT22;10518;50.742;4.226;2023-06-10T01:46:13;22.00;99.90
20714;DHT22;10518;50.742;4.226;2023-06-10T01:48:39;21.90;99.90
20714;DHT22;10518;50.742;4.226;2023-06-10T01:51:05;22.00;99.90
20714;DHT22;10518;50.742;4.226;2023-06-10T01:53:30;21.90;99.90
20714;DHT22;10518;50.742;4.226;2023-06-10T01:55:56;21.90;99.90
20714;DHT22;10518;50.742;4.226;2023-06-10T01:58:22;21.90;99.90
20714;DHT22;10518;50.742;4.226;2023-06-10T02:00:47;21.90;99.90
20714;DHT22;10518;50.742;4.226;2023-06-10T02:03:13;22.10;99.90
20714;DHT22;10518;50.742;4.226;2023-06-10T02:05:39;22.10;99.90
20714;DHT22;10518;50.742;4.226;2023-06-10T02:08:05;22.10;99.90
20714;DHT22;10518;50.742;4.226;2023-06-10T02:10:31;22.00;99.90
20714;DHT22;10518;50.742;4.226;2023-06-10T02:12:56;21.80;99.90
20714;DHT22;10518;50.742;4.226;2023-06-10T02:15:22;21.80;99.90
20714;DHT22;10518;50.742;4.226;2023-06-10T02:17:48;21.80;99.90
20714;DHT22;10518;50.742;4.226;2023-06-10T02:20:16;21.90;99.90
20714;DHT22;10518;50.742;4.226;2023-06-10T02:22:41;21.80;99.90
20714;DHT22;10518;50.742;4.226;2023-06-10T02:25:07;21.70;99.90
20714;DHT22;10518;50.742;4.226;2023-06-10T02:27:33;21.60;99.90
20714;DHT22;10518;50.742;4.226;2023-06-10T02:29:59;21.70;99.90
20714;DHT22;10518;50.742;4.226;2023-06-10T02:32:24;21.90;99.90
20714;DHT22;10518;50.742;4.226;2023-06-10T02:34:51;21.80;99.90
20714;DHT22;10518;50.742;4.226;2023-06-10T02:37:17;21.70;99.90
20714;DHT22;10518;50.742;4.226;2023-06-10T02:39:43;21.70;99.90
20714;DHT22;10518;50.742;4.226;2023-06-10T02:42:09;21.60;99.90
20714;DHT22;10518;50.742;4.226;2023-06-10T02:44:35;21.50;99.90
20714;DHT22;10518;50.742;4.226;2023-06-10T02:47:00;21.60;99.90
20714;DHT22;10518;50.742;4.226;2023-06-10T02:49:26;21.60;99.90
20714;DHT22;10518;50.742;4.226;2023-06-10T02:51:54;21.50;99.90
20714;DHT22;10518;50.742;4.226;2023-06-10T02:54:22;21.50;99.90
20714;DHT22;10518;50.742;4.226;2023-06-10T02:56:48;21.40;99.90
20714;DHT22;10518;50.742;4.226;2023-06-10T02:59:14;21.30;99.90
20714;DHT22;10518;50.742;4.226;2023-06-10T03:01:41;21.40;99.90
20714;DHT22;10518;50.742;4.226;2023-06-10T03:04:07;21.40;99.90
20714;DHT22;10518;50.742;4.226;2023-06-10T03:06:33;21.30;99.90
20714;DHT22;10518;50.742;4.226;2023-06-10T03:09:00;21.30;99.90
20714;DHT22;10518;50.742;4.226;2023-06-10T03:11:26;21.30;99.90
20714;DHT22;10518;50.742;4.226;2023-06-10T03:13:51;21.30;99.90
20714;DHT22;10518;50.742;4.226;2023-06-10T03:16:19;21.30;99.90
20714;DHT22;10518;50.742;4.226;2023-06-10T03:18:45;21.30;99.90
20714;DHT22;10518;50.742;4.226;2023-06-10T03:21:11;21.50;99.90
20714;DHT22;10518;50.742;4.226;2023-06-10T03:23:36;21.50;99.90
20714;DHT22;10518;50.742;4.226;2023-06-10T03:26:03;21.40;99.90
20714;DHT22;10518;50.742;4.226;2023-06-10T03:28:30;21.50;99.90
20714;DHT22;10518;50.742;4.226;2023-06-10T03:30:56;21.50;99.90
20714;DHT22;10518;50.742;4.226;2023-06-10T03:33:22;21.40;99.90
20714;DHT22;10518;50.742;4.226;2023-06-10T03:35:47;21.20;99.90
20714;DHT22;10518;50.742;4.226;2023-06-10T03:38:13;21.20;99.90
20714;DHT22;10518;50.742;4.226;2023-06-10T03:40:39;21.30;99.90
20714;DHT22;10518;50.742;4.226;2023-06-10T03:43:04;21.30;99.90
20714;DHT22;10518;50.742;4.226;2023-06-10T03:45:30;21.00;99.90
20714;DHT22;10518;50.742;4.226;2023-06-10T03:47:56;20.90;99.90
20714;DHT22;10518;50.742;4.226;2023-06-10T03:50:22;20.80;99.90
20714;DHT22;10518;50.742;4.226;2023-06-10T03:52:49;20.70;99.90
20714;DHT22;10518;50.742;4.226;2023-06-10T03:55:14;20.60;99.90
20714;DHT22;10518;50.742;4.226;2023-06-10T03:57:42;20.70;99.90
20714;DHT22;10518;50.742;4.226;2023-06-10T04:00:08;20.60;99.90
20714;DHT22;10518;50.742;4.226;2023-06-10T04:02:38;20.50;99.90
20714;DHT22;10518;50.742;4.226;2023-06-10T04:05:12;20.40;99.90
20714;DHT22;10518;50.742;4.226;2023-06-10T04:07:37;20.40;99.90
20714;DHT22;10518;50.742;4.226;2023-06-10T04:10:06;20.40;99.90
20714;DHT22;10518;50.742;4.226;2023-06-10T04:12:32;20.40;99.90
20714;DHT22;10518;50.742;4.226;2023-06-10T04:14:57;20.60;99.90
20714;DHT22;10518;50.742;4.226;2023-06-10T04:17:23;20.60;99.90
20714;DHT22;10518;50.742;4.226;2023-06-10T04:19:49;20.60;99.90
20714;DHT22;10518;50.742;4.226;2023-06-10T04:22:15;20.90;99.90
20714;DHT22;10518;50.742;4.226;2023-06-10T04:24:42;20.80;99.90
20714;DHT22;10518;50.742;4.226;2023-06-10T04:27:08;20.80;99.90
20714;DHT22;10518;50.742;4.226;2023-06-10T04:29:33;20.80;99.90
20714;DHT22;10518;50.742;4.226;2023-06-10T04:31:59;20.90;99.90
20714;DHT22;10518;50.742;4.226;2023-06-10T04:34:27;21.00;99.90
20714;DHT22;10518;50.742;4.226;2023-06-10T04:36:52;21.20;99.90
20714;DHT22;10518;50.742;4.226;2023-06-10T04:39:18;21.30;99.90
20714;DHT22;10518;50.742;4.226;2023-06-10T04:41:44;21.30;99.90
20714;DHT22;10518;50.742;4.226;2023-06-10T04:44:09;21.20;99.90
20714;DHT22;10518;50.742;4.226;2023-06-10T04:46:36;21.20;99.90
20714;DHT22;10518;50.742;4.226;2023-06-10T04:49:02;21.40;99.90
20714;DHT22;10518;50.742;4.226;2023-06-10T04:51:27;21.30;99.90
20714;DHT22;10518;50.742;4.226;2023-06-10T04:53:53;21.30;99.90
20714;DHT22;10518;50.742;4.226;2023-06-10T04:56:19;21.30;99.90
20714;DHT22;10518;50.742;4.226;2023-06-10T04:58:45;21.30;99.90
20714;DHT22;10518;50.742;4.226;2023-06-10T05:01:11;21.50;99.90
20714;DHT22;10518;50.742;4.226;2023-06-10T05:03:36;21.60;99.90
20714;DHT22;10518;50.742;4.226;2023-06-10T05:06:02;21.80;99.90
20714;DHT22;10518;50.742;4.226;2023-06-10T05:08:27;21.80;99.90
20714;DHT22;10518;50.742;4.226;2023-06-10T05:10:53;22.00;99.90
20714;DHT22;10518;50.742;4.226;2023-06-10T05:13:19;22.40;99.90
20714;DHT22;10518;50.742;4.226;2023-06-10T05:15:44;22.60;99.90
20714;DHT22;10518;50.742;4.226;2023-06-10T05:18:11;22.80;99.90
20714;DHT22;10518;50.742;4.226;2023-06-10T05:20:40;23.40;99.90
20714;DHT22;10518;50.742;4.226;2023-06-10T05:23:05;24.00;99.90
20714;DHT22;10518;50.742;4.226;2023-06-10T05:25:32;24.80;99.90
20714;DHT22;10518;50.742;4.226;2023-06-10T05:27:58;25.60;99.90
20714;DHT22;10518;50.742;4.226;2023-06-10T05:30:24;26.30;99.90
20714;DHT22;10518;50.742;4.226;2023-06-10T05:32:50;26.90;99.90
20714;DHT22;10518;50.742;4.226;2023-06-10T05:35:19;27.30;99.90
20714;DHT22;10518;50.742;4.226;2023-06-10T05:37:44;27.90;99.90
20714;DHT22;10518;50.742;4.226;2023-06-10T05:40:11;28.30;99.90
20714;DHT22;10518;50.742;4.226;2023-06-10T05:42:36;28.80;99.90
20714;DHT22;10518;50.742;4.226;2023-06-10T05:45:02;29.30;99.90
20714;DHT22;10518;50.742;4.226;2023-06-10T05:47:28;29.90;99.90
20714;DHT22;10518;50.742;4.226;2023-06-10T05:49:54;30.60;99.90
20714;DHT22;10518;50.742;4.226;2023-06-10T05:52:20;30.90;99.90
20714;DHT22;10518;50.742;4.226;2023-06-10T05:54:46;31.00;99.90
20714;DHT22;10518;50.742;4.226;2023-06-10T05:57:11;30.70;99.90
20714;DHT22;10518;50.742;4.226;2023-06-10T05:59:37;30.70;99.90
20714;DHT22;10518;50.742;4.226;2023-06-10T06:02:03;31.00;99.90
20714;DHT22;10518;50.742;4.226;2023-06-10T06:04:28;30.40;99.90
20714;DHT22;10518;50.742;4.226;2023-06-10T06:06:54;30.30;99.90
20714;DHT22;10518;50.742;4.226;2023-06-10T06:09:19;31.10;99.90
20714;DHT22;10518;50.742;4.226;2023-06-10T06:11:45;31.80;99.90
20714;DHT22;10518;50.742;4.226;2023-06-10T06:14:11;31.70;99.90
20714;DHT22;10518;50.742;4.226;2023-06-10T06:16:38;31.60;99.90
20714;DHT22;10518;50.742;4.226;2023-06-10T06:19:03;32.00;99.90
20714;DHT22;10518;50.742;4.226;2023-06-10T06:21:29;32.60;99.90
20714;DHT22;10518;50.742;4.226;2023-06-10T06:23:54;32.90;99.80
20714;DHT22;10518;50.742;4.226;2023-06-10T06:26:20;32.90;99.40
20714;DHT22;10518;50.742;4.226;2023-06-10T06:28:46;32.20;99.80
20714;DHT22;10518;50.742;4.226;2023-06-10T06:31:11;32.30;99.70
20714;DHT22;10518;50.742;4.226;2023-06-10T06:33:37;32.90;99.40
20714;DHT22;10518;50.742;4.226;2023-06-10T06:36:03;32.90;99.00
20714;DHT22;10518;50.742;4.226;2023-06-10T06:38:28;33.50;98.00
20714;DHT22;10518;50.742;4.226;2023-06-10T06:40:54;34.00;97.80
20714;DHT22;10518;50.742;4.226;2023-06-10T06:43:19;34.20;97.00
20714;DHT22;10518;50.742;4.226;2023-06-10T06:45:45;34.30;97.00
20714;DHT22;10518;50.742;4.226;2023-06-10T06:48:11;34.50;96.50
20714;DHT22;10518;50.742;4.226;2023-06-10T06:50:37;34.50;95.80
20714;DHT22;10518;50.742;4.226;2023-06-10T06:53:04;34.30;95.60
20714;DHT22;10518;50.742;4.226;2023-06-10T06:55:30;34.20;95.40
20714;DHT22;10518;50.742;4.226;2023-06-10T06:57:55;34.10;95.30
20714;DHT22;10518;50.742;4.226;2023-06-10T07:00:21;34.80;95.30
20714;DHT22;10518;50.742;4.226;2023-06-10T07:02:47;34.50;93.90
20714;DHT22;10518;50.742;4.226;2023-06-10T07:05:13;34.20;94.60
20714;DHT22;10518;50.742;4.226;2023-06-10T07:07:39;34.50;94.30
20714;DHT22;10518;50.742;4.226;2023-06-10T07:10:05;33.60;94.20
20714;DHT22;10518;50.742;4.226;2023-06-10T07:12:30;34.00;95.20
20714;DHT22;10518;50.742;4.226;2023-06-10T07:14:56;35.00;93.90
20714;DHT22;10518;50.742;4.226;2023-06-10T07:17:21;35.30;93.30
20714;DHT22;10518;50.742;4.226;2023-06-10T07:19:47;35.90;92.60
20714;DHT22;10518;50.742;4.226;2023-06-10T07:22:13;36.00;91.80
20714;DHT22;10518;50.742;4.226;2023-06-10T07:24:39;35.80;92.00
20714;DHT22;10518;50.742;4.226;2023-06-10T07:27:05;35.10;91.50
20714;DHT22;10518;50.742;4.226;2023-06-10T07:29:31;35.20;92.90
20714;DHT22;10518;50.742;4.226;2023-06-10T07:31:56;34.90;92.30
20714;DHT22;10518;50.742;4.226;2023-06-10T07:34:22;34.60;91.80
20714;DHT22;10518;50.742;4.226;2023-06-10T07:36:47;35.10;92.20
20714;DHT22;10518;50.742;4.226;2023-06-10T07:39:13;35.60;91.50
20714;DHT22;10518;50.742;4.226;2023-06-10T07:41:40;36.20;91.00
20714;DHT22;10518;50.742;4.226;2023-06-10T07:44:06;36.00;91.30
20714;DHT22;10518;50.742;4.226;2023-06-10T07:46:31;35.50;91.20
20714;DHT22;10518;50.742;4.226;2023-06-10T07:48:57;35.70;91.10
20714;DHT22;10518;50.742;4.226;2023-06-10T07:51:23;35.50;91.40
20714;DHT22;10518;50.742;4.226;2023-06-10T07:53:48;35.80;91.20
20714;DHT22;10518;50.742;4.226;2023-06-10T07:56:14;35.90;91.20
20714;DHT22;10518;50.742;4.226;2023-06-10T07:58:40;35.90;90.10
20714;DHT22;10518;50.742;4.226;2023-06-10T08:01:05;35.50;91.40
20714;DHT22;10518;50.742;4.226;2023-06-10T08:03:32;34.90;90.40
20714;DHT22;10518;50.742;4.226;2023-06-10T08:05:57;34.70;90.90
20714;DHT22;10518;50.742;4.226;2023-06-10T08:08:23;34.30;91.10
20714;DHT22;10518;50.742;4.226;2023-06-10T08:10:48;34.70;91.10
20714;DHT22;10518;50.742;4.226;2023-06-10T08:13:15;34.90;91.60
20714;DHT22;10518;50.742;4.226;2023-06-10T08:15:40;34.80;90.30
20714;DHT22;10518;50.742;4.226;2023-06-10T08:18:06;34.10;91.50
20714;DHT22;10518;50.742;4.226;2023-06-10T08:20:31;33.70;91.50
20714;DHT22;10518;50.742;4.226;2023-06-10T08:22:57;32.90;91.70
20714;DHT22;10518;50.742;4.226;2023-06-10T08:25:23;32.30;92.20
20714;DHT22;10518;50.742;4.226;2023-06-10T08:27:48;31.80;93.20
20714;DHT22;10518;50.742;4.226;2023-06-10T08:30:16;31.40;93.30
20714;DHT22;10518;50.742;4.226;2023-06-10T08:32:41;31.20;93.60
20714;DHT22;10518;50.742;4.226;2023-06-10T08:35:07;31.40;94.00
20714;DHT22;10518;50.742;4.226;2023-06-10T08:37:33;31.10;94.30
20714;DHT22;10518;50.742;4.226;2023-06-10T08:39:59;30.70;94.50
20714;DHT22;10518;50.742;4.226;2023-06-10T08:42:39;30.30;95.20
20714;DHT22;10518;50.742;4.226;2023-06-10T08:45:07;30.20;96.10
20714;DHT22;10518;50.742;4.226;2023-06-10T08:47:39;30.00;96.00
20714;DHT22;10518;50.742;4.226;2023-06-10T08:50:08;30.00;96.90
20714;DHT22;10518;50.742;4.226;2023-06-10T08:52:36;30.30;96.60
20714;DHT22;10518;50.742;4.226;2023-06-10T08:55:18;30.00;96.30
20714;DHT22;10518;50.742;4.226;2023-06-10T08:57:45;29.90;97.00
20714;DHT22;10518;50.742;4.226;2023-06-10T09:00:12;29.90;96.40
20714;DHT22;10518;50.742;4.226;2023-06-10T09:02:38;29.90;97.30
20714;DHT22;10518;50.742;4.226;2023-06-10T09:05:05;30.00;97.60
20714;DHT22;10518;50.742;4.226;2023-06-10T09:07:31;30.00;96.90
20714;DHT22;10518;50.742;4.226;2023-06-10T09:09:57;29.90;96.80
20714;DHT22;10518;50.742;4.226;2023-06-10T09:12:24;30.00;97.50
20714;DHT22;10518;50.742;4.226;2023-06-10T09:14:50;30.10;97.90
20714;DHT22;10518;50.742;4.226;2023-06-10T09:17:16;30.00;98.30
20714;DHT22;10518;50.742;4.226;2023-06-10T09:19:44;29.80;97.20
20714;DHT22;10518;50.742;4.226;2023-06-10T09:22:11;29.80;98.80
20714;DHT22;10518;50.742;4.226;2023-06-10T09:24:37;30.00;97.80
20714;DHT22;10518;50.742;4.226;2023-06-10T09:27:07;30.20;97.80
20714;DHT22;10518;50.742;4.226;2023-06-10T09:29:46;30.20;97.50
20714;DHT22;10518;50.742;4.226;2023-06-10T09:32:12;29.80;97.10
20714;DHT22;10518;50.742;4.226;2023-06-10T09:34:39;29.60;98.20
20714;DHT22;10518;50.742;4.226;2023-06-10T09:37:05;29.70;97.80
20714;DHT22;10518;50.742;4.226;2023-06-10T09:39:31;29.70;97.70
20714;DHT22;10518;50.742;4.226;2023-06-10T09:41:56;29.70;98.10
20714;DHT22;10518;50.742;4.226;2023-06-10T09:44:22;29.90;97.60
20714;DHT22;10518;50.742;4.226;2023-06-10T09:46:50;29.80;97.70
20714;DHT22;10518;50.742;4.226;2023-06-10T09:49:17;29.70;97.10
20714;DHT22;10518;50.742;4.226;2023-06-10T09:51:53;29.70;97.10
20714;DHT22;10518;50.742;4.226;2023-06-10T09:54:20;29.50;97.60
20714;DHT22;10518;50.742;4.226;2023-06-10T09:56:51;29.80;97.30
20714;DHT22;10518;50.742;4.226;2023-06-10T09:59:37;29.80;96.40
20714;DHT22;10518;50.742;4.226;2023-06-10T10:02:03;29.70;97.00
20714;DHT22;10518;50.742;4.226;2023-06-10T10:04:30;30.00;97.40
20714;DHT22;10518;50.742;4.226;2023-06-10T10:06:56;30.00;97.10
20714;DHT22;10518;50.742;4.226;2023-06-10T10:09:21;29.80;96.90
20714;DHT22;10518;50.742;4.226;2023-06-10T10:11:48;29.70;96.70
20714;DHT22;10518;50.742;4.226;2023-06-10T10:14:15;29.70;96.00
20714;DHT22;10518;50.742;4.226;2023-06-10T10:16:42;29.80;96.30
20714;DHT22;10518;50.742;4.226;2023-06-10T10:19:34;29.70;96.80
20714;DHT22;10518;50.742;4.226;2023-06-10T10:22:06;29.80;96.00
20714;DHT22;10518;50.742;4.226;2023-06-10T10:24:38;30.00;96.10
20714;DHT22;10518;50.742;4.226;2023-06-10T10:27:11;30.10;95.40
20714;DHT22;10518;50.742;4.226;2023-06-10T10:29:39;29.90;95.50
20714;DHT22;10518;50.742;4.226;2023-06-10T10:32:07;29.90;95.60
20714;DHT22;10518;50.742;4.226;2023-06-10T10:37:24;30.00;94.10
20714;DHT22;10518;50.742;4.226;2023-06-10T10:39:50;30.00;94.70
20714;DHT22;10518;50.742;4.226;2023-06-10T10:42:17;30.10;95.10
20714;DHT22;10518;50.742;4.226;2023-06-10T10:44:43;30.40;94.40
20714;DHT22;10518;50.742;4.226;2023-06-10T10:47:10;30.50;94.00
20714;DHT22;10518;50.742;4.226;2023-06-10T10:49:37;30.50;93.90
20714;DHT22;10518;50.742;4.226;2023-06-10T10:52:04;30.40;94.40
20714;DHT22;10518;50.742;4.226;2023-06-10T10:54:36;30.70;94.40
20714;DHT22;10518;50.742;4.226;2023-06-10T10:57:21;30.70;92.60
20714;DHT22;10518;50.742;4.226;2023-06-10T10:59:53;30.70;92.40
20714;DHT22;10518;50.742;4.226;2023-06-10T11:04:58;30.70;92.40
20714;DHT22;10518;50.742;4.226;2023-06-10T11:07:26;30.90;93.00
20714;DHT22;10518;50.742;4.226;2023-06-10T11:12:25;30.90;91.90
20714;DHT22;10518;50.742;4.226;2023-06-10T11:14:54;30.90;91.70
20714;DHT22;10518;50.742;4.226;2023-06-10T11:17:23;30.50;91.80
20714;DHT22;10518;50.742;4.226;2023-06-10T11:19:49;30.40;92.70
20714;DHT22;10518;50.742;4.226;2023-06-10T11:22:18;30.50;91.90
20714;DHT22;10518;50.742;4.226;2023-06-10T11:24:49;30.40;92.40
20714;DHT22;10518;50.742;4.226;2023-06-10T11:27:24;30.60;91.90
20714;DHT22;10518;50.742;4.226;2023-06-10T11:32:32;30.60;91.00
20714;DHT22;10518;50.742;4.226;2023-06-10T11:34:58;30.70;91.60
20714;DHT22;10518;50.742;4.226;2023-06-10T11:37:23;30.80;90.90
20714;DHT22;10518;50.742;4.226;2023-06-10T11:39:54;30.80;90.50
20714;DHT22;10518;50.742;4.226;2023-06-10T11:42:20;30.70;90.60
20714;DHT22;10518;50.742;4.226;2023-06-10T11:44:53;30.80;90.60
20714;DHT22;10518;50.742;4.226;2023-06-10T11:47:19;30.70;90.30
20714;DHT22;10518;50.742;4.226;2023-06-10T11:49:46;30.60;90.30
20714;DHT22;10518;50.742;4.226;2023-06-10T11:52:30;30.60;91.20
20714;DHT22;10518;50.742;4.226;2023-06-10T11:54:57;30.40;91.10
20714;DHT22;10518;50.742;4.226;2023-06-10T11:57:23;30.40;91.30
20714;DHT22;10518;50.742;4.226;2023-06-10T11:59:48;30.70;92.00
20714;DHT22;10518;50.742;4.226;2023-06-10T12:02:17;30.70;92.10
20714;DHT22;10518;50.742;4.226;2023-06-10T12:04:44;30.60;92.40
20714;DHT22;10518;50.742;4.226;2023-06-10T12:07:17;30.60;92.60
20714;DHT22;10518;50.742;4.226;2023-06-10T12:09:44;30.70;92.50
20714;DHT22;10518;50.742;4.226;2023-06-10T12:12:09;30.70;91.80
20714;DHT22;10518;50.742;4.226;2023-06-10T12:14:56;30.70;91.50
20714;DHT22;10518;50.742;4.226;2023-06-10T12:19:58;30.80;90.20
20714;DHT22;10518;50.742;4.226;2023-06-10T12:22:24;30.80;91.30
20714;DHT22;10518;50.742;4.226;2023-06-10T12:25:04;30.50;90.90
20714;DHT22;10518;50.742;4.226;2023-06-10T12:27:30;30.20;91.50
20714;DHT22;10518;50.742;4.226;2023-06-10T12:29:58;30.20;92.10
20714;DHT22;10518;50.742;4.226;2023-06-10T12:32:55;30.20;92.00
20714;DHT22;10518;50.742;4.226;2023-06-10T12:35:22;30.30;91.00
20714;DHT22;10518;50.742;4.226;2023-06-10T12:38:01;30.60;92.40
20714;DHT22;10518;50.742;4.226;2023-06-10T12:40:38;30.50;91.90
20714;DHT22;10518;50.742;4.226;2023-06-10T12:43:05;30.40;92.10
20714;DHT22;10518;50.742;4.226;2023-06-10T12:45:38;30.30;91.80
20714;DHT22;10518;50.742;4.226;2023-06-10T12:50:43;30.60;92.20
20714;DHT22;10518;50.742;4.226;2023-06-10T12:53:11;30.50;92.40
20714;DHT22;10518;50.742;4.226;2023-06-10T12:55:37;30.70;93.10
20714;DHT22;10518;50.742;4.226;2023-06-10T12:58:03;30.80;92.40
20714;DHT22;10518;50.742;4.226;2023-06-10T13:00:29;30.70;92.50
20714;DHT22;10518;50.742;4.226;2023-06-10T13:03:00;30.80;92.70
20714;DHT22;10518;50.742;4.226;2023-06-10T13:05:26;30.60;93.10
20714;DHT22;10518;50.742;4.226;2023-06-10T13:07:52;30.60;92.60
20714;DHT22;10518;50.742;4.226;2023-06-10T13:10:17;30.70;92.30
20714;DHT22;10518;50.742;4.226;2023-06-10T13:12:44;30.90;91.90
20714;DHT22;10518;50.742;4.226;2023-06-10T13:15:10;30.90;91.50
20714;DHT22;10518;50.742;4.226;2023-06-10T13:17:36;30.70;92.10
20714;DHT22;10518;50.742;4.226;2023-06-10T13:20:06;30.90;92.10
20714;DHT22;10518;50.742;4.226;2023-06-10T13:22:32;30.80;92.40
20714;DHT22;10518;50.742;4.226;2023-06-10T13:25:03;30.80;92.10
20714;DHT22;10518;50.742;4.226;2023-06-10T13:27:29;30.80;92.10
20714;DHT22;10518;50.742;4.226;2023-06-10T13:29:55;30.60;92.30
20714;DHT22;10518;50.742;4.226;2023-06-10T13:32:20;30.70;91.90
20714;DHT22;10518;50.742;4.226;2023-06-10T13:34:46;30.80;92.10
20714;DHT22;10518;50.742;4.226;2023-06-10T13:37:12;30.70;92.50
20714;DHT22;10518;50.742;4.226;2023-06-10T13:39:42;31.00;92.00
20714;DHT22;10518;50.742;4.226;2023-06-10T13:42:08;31.00;92.30
20714;DHT22;10518;50.742;4.226;2023-06-10T13:44:34;30.80;91.60
20714;DHT22;10518;50.742;4.226;2023-06-10T13:47:04;30.60;91.10
20714;DHT22;10518;50.742;4.226;2023-06-10T13:49:30;30.70;91.50
20714;DHT22;10518;50.742;4.226;2023-06-10T13:51:56;30.90;91.20
20714;DHT22;10518;50.742;4.226;2023-06-10T13:54:22;31.20;90.70
20714;DHT22;10518;50.742;4.226;2023-06-10T13:56:48;31.50;91.20
20714;DHT22;10518;50.742;4.226;2023-06-10T13:59:14;31.70;91.00
20714;DHT22;10518;50.742;4.226;2023-06-10T14:01:39;31.60;90.80
20714;DHT22;10518;50.742;4.226;2023-06-10T14:04:06;31.50;90.80
20714;DHT22;10518;50.742;4.226;2023-06-10T14:06:32;31.50;90.60
20714;DHT22;10518;50.742;4.226;2023-06-10T14:08:59;31.10;90.70
20714;DHT22;10518;50.742;4.226;2023-06-10T14:11:24;30.70;90.40
20714;DHT22;10518;50.742;4.226;2023-06-10T14:13:50;30.70;90.60
20714;DHT22;10518;50.742;4.226;2023-06-10T14:16:16;30.70;90.80
20714;DHT22;10518;50.742;4.226;2023-06-10T14:18:41;30.60;90.40
20714;DHT22;10518;50.742;4.226;2023-06-10T14:21:07;30.60;90.90
20714;DHT22;10518;50.742;4.226;2023-06-10T14:23:32;30.60;90.40
20714;DHT22;10518;50.742;4.226;2023-06-10T14:25:58;30.50;90.70
20714;DHT22;10518;50.742;4.226;2023-06-10T14:28:24;30.80;90.60
20714;DHT22;10518;50.742;4.226;2023-06-10T14:30:51;30.70;90.50
20714;DHT22;10518;50.742;4.226;2023-06-10T14:33:18;30.80;90.80
20714;DHT22;10518;50.742;4.226;2023-06-10T14:35:43;30.90;91.30
20714;DHT22;10518;50.742;4.226;2023-06-10T14:38:09;31.00;89.50
20714;DHT22;10518;50.742;4.226;2023-06-10T14:40:35;30.80;88.80
20714;DHT22;10518;50.742;4.226;2023-06-10T14:43:01;30.70;89.50
20714;DHT22;10518;50.742;4.226;2023-06-10T14:45:29;30.70;90.10
20714;DHT22;10518;50.742;4.226;2023-06-10T14:47:54;30.60;89.70
20714;DHT22;10518;50.742;4.226;2023-06-10T14:50:20;30.60;89.60
20714;DHT22;10518;50.742;4.226;2023-06-10T14:52:46;30.60;89.80
20714;DHT22;10518;50.742;4.226;2023-06-10T14:55:12;30.80;90.60
20714;DHT22;10518;50.742;4.226;2023-06-10T14:57:37;30.90;90.30
20714;DHT22;10518;50.742;4.226;2023-06-10T15:00:03;31.00;89.30
20714;DHT22;10518;50.742;4.226;2023-06-10T15:02:29;31.20;89.70
20714;DHT22;10518;50.742;4.226;2023-06-10T15:04:55;31.30;88.50
20714;DHT22;10518;50.742;4.226;2023-06-10T15:07:20;31.30;87.60
20714;DHT22;10518;50.742;4.226;2023-06-10T15:09:46;31.10;88.20
20714;DHT22;10518;50.742;4.226;2023-06-10T15:12:12;31.10;89.20
20714;DHT22;10518;50.742;4.226;2023-06-10T15:14:38;31.10;88.80
20714;DHT22;10518;50.742;4.226;2023-06-10T15:17:03;31.10;88.20
20714;DHT22;10518;50.742;4.226;2023-06-10T15:19:29;31.20;89.20
20714;DHT22;10518;50.742;4.226;2023-06-10T15:21:54;31.20;88.00
20714;DHT22;10518;50.742;4.226;2023-06-10T15:24:20;31.20;88.20
20714;DHT22;10518;50.742;4.226;2023-06-10T15:26:46;31.20;87.30
20714;DHT22;10518;50.742;4.226;2023-06-10T15:29:11;31.10;87.40
20714;DHT22;10518;50.742;4.226;2023-06-10T15:31:37;30.80;87.50
20714;DHT22;10518;50.742;4.226;2023-06-10T15:34:03;30.90;88.90
20714;DHT22;10518;50.742;4.226;2023-06-10T15:36:29;30.70;88.30
20714;DHT22;10518;50.742;4.226;2023-06-10T15:39:01;30.60;88.60
20714;DHT22;10518;50.742;4.226;2023-06-10T15:41:28;30.60;88.70
20714;DHT22;10518;50.742;4.226;2023-06-10T15:43:55;30.80;89.10
20714;DHT22;10518;50.742;4.226;2023-06-10T15:46:20;31.00;89.80
20714;DHT22;10518;50.742;4.226;2023-06-10T15:48:46;31.10;87.20
20714;DHT22;10518;50.742;4.226;2023-06-10T15:51:12;31.20;87.30